バンコク/スワンナプーム の空港の天気 - METARとTAF

スワンナプーム国際空港 ( VTBS / BKK ) - タイ サムットプラーカーン県 (バンコク近郊)
飛行場実況気象(Metar)
観測時間04/27 23:30 +07 (04/27 16:30 UTC)
風向・風速南 4m/s
視程10km以上
天気現象
少しの雲 雲底高度 610m
気温30℃
湿度75%
気圧1010hPa
METARVTBS 271630Z 19008KT 9999 FEW020 30/25 Q1010 NOSIG
過去の天気等 Google飛行場航空写真 Wunderground天気予報

過去48時間のMETAR

飛行場予報(TAF)
発表時間: 4/27 18:00 +07 (4/27 11:00 UTC)
予報対象時間: 27日19時 +07 ~ 29日1時 +07
風向・風速南 4m/s
視程10km以上
少しの雲 雲底高度 610m
28日3時 +07 ~ 28日5時 +07 に徐々に
風向・風速南東 3m/s
28日6時 +07 ~ 28日10時 +07 に一時的に
風向・風速南西 6m/s
視程6,000m
天気現象弱い雷雨
少しの積乱雲 雲底高度 550m
全天の4割程度の雲 雲底高度 910m
28日11時 +07 ~ 28日13時 +07 に徐々に
風向・風速南南西 5m/s
TAF VTBS 271100Z 2712/2818 19008KT 9999 FEW020
BECMG 2720/2722 13005KT
TEMPO 2723/2803 22012KT 6000 -TSRA FEW018CB SCT030
BECMG 2804/2806 20010KT